sensor_id;sensor_type;location;lat;lon;timestamp;temperature;humidity
71304;DHT22;59091;47.446;19.148;2023-03-14T00:00:14;10.21;46.01
71304;DHT22;59091;47.446;19.148;2023-03-14T00:02:40;10.27;46.28
71304;DHT22;59091;47.446;19.148;2023-03-14T00:05:06;10.27;45.98
71304;DHT22;59091;47.446;19.148;2023-03-14T00:07:36;10.27;45.97
71304;DHT22;59091;47.446;19.148;2023-03-14T00:10:11;10.07;46.08
71304;DHT22;59091;47.446;19.148;2023-03-14T00:12:37;10.17;46.24
71304;DHT22;59091;47.446;19.148;2023-03-14T00:15:03;10.21;46.03
71304;DHT22;59091;47.446;19.148;2023-03-14T00:17:30;10.24;45.99
71304;DHT22;59091;47.446;19.148;2023-03-14T00:19:56;10.20;46.16
71304;DHT22;59091;47.446;19.148;2023-03-14T00:22:21;10.13;46.18
71304;DHT22;59091;47.446;19.148;2023-03-14T00:24:47;10.10;46.67
71304;DHT22;59091;47.446;19.148;2023-03-14T00:27:13;10.07;46.48
71304;DHT22;59091;47.446;19.148;2023-03-14T00:29:38;10.12;46.48
71304;DHT22;59091;47.446;19.148;2023-03-14T00:32:04;9.96;47.14
71304;DHT22;59091;47.446;19.148;2023-03-14T00:34:31;9.99;47.23
71304;DHT22;59091;47.446;19.148;2023-03-14T00:36:56;9.97;47.30
71304;DHT22;59091;47.446;19.148;2023-03-14T00:39:22;9.99;47.21
71304;DHT22;59091;47.446;19.148;2023-03-14T00:41:47;10.02;47.29
71304;DHT22;59091;47.446;19.148;2023-03-14T00:44:13;9.86;47.51
71304;DHT22;59091;47.446;19.148;2023-03-14T00:46:38;9.82;47.94
71304;DHT22;59091;47.446;19.148;2023-03-14T00:49:04;9.85;47.59
71304;DHT22;59091;47.446;19.148;2023-03-14T00:51:29;9.97;47.43
71304;DHT22;59091;47.446;19.148;2023-03-14T00:53:55;9.90;47.50
71304;DHT22;59091;47.446;19.148;2023-03-14T00:56:20;10.03;47.48
71304;DHT22;59091;47.446;19.148;2023-03-14T00:58:46;10.05;47.28
71304;DHT22;59091;47.446;19.148;2023-03-14T01:01:16;10.06;47.32
71304;DHT22;59091;47.446;19.148;2023-03-14T01:03:43;10.00;47.58
71304;DHT22;59091;47.446;19.148;2023-03-14T01:06:14;10.05;47.11
71304;DHT22;59091;47.446;19.148;2023-03-14T01:08:40;9.96;47.37
71304;DHT22;59091;47.446;19.148;2023-03-14T01:11:11;9.92;47.75
71304;DHT22;59091;47.446;19.148;2023-03-14T01:13:37;10.02;47.69
71304;DHT22;59091;47.446;19.148;2023-03-14T01:16:04;9.93;47.79
71304;DHT22;59091;47.446;19.148;2023-03-14T01:18:32;9.99;47.63
71304;DHT22;59091;47.446;19.148;2023-03-14T01:20:57;10.02;47.48
71304;DHT22;59091;47.446;19.148;2023-03-14T01:23:23;10.09;47.43
71304;DHT22;59091;47.446;19.148;2023-03-14T01:25:48;10.00;47.66
71304;DHT22;59091;47.446;19.148;2023-03-14T01:28:14;9.96;47.76
71304;DHT22;59091;47.446;19.148;2023-03-14T01:30:39;10.02;48.06
71304;DHT22;59091;47.446;19.148;2023-03-14T01:33:05;9.97;47.96
71304;DHT22;59091;47.446;19.148;2023-03-14T01:35:30;10.05;47.75
71304;DHT22;59091;47.446;19.148;2023-03-14T01:37:55;9.95;48.26
71304;DHT22;59091;47.446;19.148;2023-03-14T01:40:21;9.79;48.82
71304;DHT22;59091;47.446;19.148;2023-03-14T01:42:57;9.74;48.91
71304;DHT22;59091;47.446;19.148;2023-03-14T01:48:27;9.76;49.06
71304;DHT22;59091;47.446;19.148;2023-03-14T01:50:54;9.83;48.88
71304;DHT22;59091;47.446;19.148;2023-03-14T01:53:19;9.89;48.86
71304;DHT22;59091;47.446;19.148;2023-03-14T01:55:48;9.85;48.95
71304;DHT22;59091;47.446;19.148;2023-03-14T01:58:14;9.63;49.95
71304;DHT22;59091;47.446;19.148;2023-03-14T02:00:41;9.71;49.82
71304;DHT22;59091;47.446;19.148;2023-03-14T02:03:11;9.66;49.95
71304;DHT22;59091;47.446;19.148;2023-03-14T02:05:40;9.72;49.91
71304;DHT22;59091;47.446;19.148;2023-03-14T02:08:18;9.63;49.81
71304;DHT22;59091;47.446;19.148;2023-03-14T02:10:47;9.72;49.92
71304;DHT22;59091;47.446;19.148;2023-03-14T02:13:15;9.61;50.47
71304;DHT22;59091;47.446;19.148;2023-03-14T02:15:41;9.58;50.71
71304;DHT22;59091;47.446;19.148;2023-03-14T02:18:07;9.58;50.78
71304;DHT22;59091;47.446;19.148;2023-03-14T02:23:23;9.66;50.47
71304;DHT22;59091;47.446;19.148;2023-03-14T02:26:01;9.61;50.93
71304;DHT22;59091;47.446;19.148;2023-03-14T02:28:27;9.54;51.07
71304;DHT22;59091;47.446;19.148;2023-03-14T02:30:53;9.52;51.20
71304;DHT22;59091;47.446;19.148;2023-03-14T02:33:20;9.49;51.35
71304;DHT22;59091;47.446;19.148;2023-03-14T02:36:04;9.23;52.01
71304;DHT22;59091;47.446;19.148;2023-03-14T02:38:55;9.35;51.98
71304;DHT22;59091;47.446;19.148;2023-03-14T02:41:21;9.24;52.50
71304;DHT22;59091;47.446;19.148;2023-03-14T02:43:47;9.28;52.63
71304;DHT22;59091;47.446;19.148;2023-03-14T02:46:16;9.28;52.45
71304;DHT22;59091;47.446;19.148;2023-03-14T02:48:53;9.20;52.76
71304;DHT22;59091;47.446;19.148;2023-03-14T02:51:21;9.24;52.77
71304;DHT22;59091;47.446;19.148;2023-03-14T02:53:47;9.30;52.73
71304;DHT22;59091;47.446;19.148;2023-03-14T02:56:12;9.27;52.78
71304;DHT22;59091;47.446;19.148;2023-03-14T02:58:38;9.10;53.42
71304;DHT22;59091;47.446;19.148;2023-03-14T03:01:04;9.24;52.87
71304;DHT22;59091;47.446;19.148;2023-03-14T03:03:30;9.27;52.83
71304;DHT22;59091;47.446;19.148;2023-03-14T03:05:56;9.17;53.24
71304;DHT22;59091;47.446;19.148;2023-03-14T03:08:23;9.32;52.83
71304;DHT22;59091;47.446;19.148;2023-03-14T03:10:50;9.32;52.72
71304;DHT22;59091;47.446;19.148;2023-03-14T03:13:16;9.42;52.59
71304;DHT22;59091;47.446;19.148;2023-03-14T03:15:42;9.45;52.39
71304;DHT22;59091;47.446;19.148;2023-03-14T03:18:08;9.54;52.12
71304;DHT22;59091;47.446;19.148;2023-03-14T03:20:33;9.54;52.50
71304;DHT22;59091;47.446;19.148;2023-03-14T03:22:59;9.52;52.90
71304;DHT22;59091;47.446;19.148;2023-03-14T03:25:25;9.56;52.56
71304;DHT22;59091;47.446;19.148;2023-03-14T03:27:50;9.62;52.52
71304;DHT22;59091;47.446;19.148;2023-03-14T03:30:16;9.61;52.82
71304;DHT22;59091;47.446;19.148;2023-03-14T03:32:42;9.69;52.49
71304;DHT22;59091;47.446;19.148;2023-03-14T03:35:08;9.72;52.42
71304;DHT22;59091;47.446;19.148;2023-03-14T03:37:34;9.71;52.34
71304;DHT22;59091;47.446;19.148;2023-03-14T03:40:00;9.65;52.54
71304;DHT22;59091;47.446;19.148;2023-03-14T03:42:29;9.69;52.20
71304;DHT22;59091;47.446;19.148;2023-03-14T03:44:54;9.63;52.74
71304;DHT22;59091;47.446;19.148;2023-03-14T03:47:20;9.72;52.23
71304;DHT22;59091;47.446;19.148;2023-03-14T03:49:45;9.56;52.65
71304;DHT22;59091;47.446;19.148;2023-03-14T03:52:10;9.51;52.92
71304;DHT22;59091;47.446;19.148;2023-03-14T03:54:36;9.54;52.79
71304;DHT22;59091;47.446;19.148;2023-03-14T03:57:02;9.58;52.16
71304;DHT22;59091;47.446;19.148;2023-03-14T03:59:27;9.61;52.27
71304;DHT22;59091;47.446;19.148;2023-03-14T04:01:52;9.62;52.37
71304;DHT22;59091;47.446;19.148;2023-03-14T04:04:18;9.62;51.93
71304;DHT22;59091;47.446;19.148;2023-03-14T04:06:44;9.63;52.17
71304;DHT22;59091;47.446;19.148;2023-03-14T04:09:10;9.72;51.98
71304;DHT22;59091;47.446;19.148;2023-03-14T04:11:36;9.49;52.45
71304;DHT22;59091;47.446;19.148;2023-03-14T04:14:02;9.58;52.30
71304;DHT22;59091;47.446;19.148;2023-03-14T04:16:27;9.62;52.05
71304;DHT22;59091;47.446;19.148;2023-03-14T04:18:53;9.69;52.01
71304;DHT22;59091;47.446;19.148;2023-03-14T04:21:18;9.68;52.08
71304;DHT22;59091;47.446;19.148;2023-03-14T04:23:44;9.74;51.77
71304;DHT22;59091;47.446;19.148;2023-03-14T04:26:09;9.74;51.73
71304;DHT22;59091;47.446;19.148;2023-03-14T04:28:35;9.71;51.86
71304;DHT22;59091;47.446;19.148;2023-03-14T04:31:09;9.68;51.53
71304;DHT22;59091;47.446;19.148;2023-03-14T04:33:34;9.69;51.69
71304;DHT22;59091;47.446;19.148;2023-03-14T04:36:01;9.69;51.58
71304;DHT22;59091;47.446;19.148;2023-03-14T04:38:27;9.69;51.82
71304;DHT22;59091;47.446;19.148;2023-03-14T04:40:52;9.62;52.07
71304;DHT22;59091;47.446;19.148;2023-03-14T04:43:18;9.66;51.71
71304;DHT22;59091;47.446;19.148;2023-03-14T04:45:43;9.63;51.86
71304;DHT22;59091;47.446;19.148;2023-03-14T04:48:08;9.63;51.67
71304;DHT22;59091;47.446;19.148;2023-03-14T04:50:34;9.61;51.65
71304;DHT22;59091;47.446;19.148;2023-03-14T04:53:00;9.68;51.59
71304;DHT22;59091;47.446;19.148;2023-03-14T04:55:25;9.61;51.46
71304;DHT22;59091;47.446;19.148;2023-03-14T04:57:50;9.66;51.39
71304;DHT22;59091;47.446;19.148;2023-03-14T05:00:16;9.59;51.79
71304;DHT22;59091;47.446;19.148;2023-03-14T05:02:45;9.54;51.57
71304;DHT22;59091;47.446;19.148;2023-03-14T05:05:11;9.63;51.33
71304;DHT22;59091;47.446;19.148;2023-03-14T05:07:36;9.61;51.36
71304;DHT22;59091;47.446;19.148;2023-03-14T05:10:02;9.58;51.21
71304;DHT22;59091;47.446;19.148;2023-03-14T05:12:27;9.63;51.26
71304;DHT22;59091;47.446;19.148;2023-03-14T05:14:53;9.62;51.23
71304;DHT22;59091;47.446;19.148;2023-03-14T05:17:18;9.66;51.35
71304;DHT22;59091;47.446;19.148;2023-03-14T05:19:44;9.65;51.45
71304;DHT22;59091;47.446;19.148;2023-03-14T05:22:10;9.59;51.32
71304;DHT22;59091;47.446;19.148;2023-03-14T05:24:36;9.35;51.74
71304;DHT22;59091;47.446;19.148;2023-03-14T05:27:02;9.58;51.73
71304;DHT22;59091;47.446;19.148;2023-03-14T05:29:28;9.56;51.26
71304;DHT22;59091;47.446;19.148;2023-03-14T05:31:53;9.56;51.41
71304;DHT22;59091;47.446;19.148;2023-03-14T05:34:18;9.66;51.77
71304;DHT22;59091;47.446;19.148;2023-03-14T05:36:44;9.75;51.53
71304;DHT22;59091;47.446;19.148;2023-03-14T05:39:09;9.78;51.12
71304;DHT22;59091;47.446;19.148;2023-03-14T05:41:35;9.81;50.83
71304;DHT22;59091;47.446;19.148;2023-03-14T05:44:01;9.85;50.84
71304;DHT22;59091;47.446;19.148;2023-03-14T05:46:26;9.96;50.99
71304;DHT22;59091;47.446;19.148;2023-03-14T05:48:52;10.07;50.53
71304;DHT22;59091;47.446;19.148;2023-03-14T05:51:17;10.12;50.08
71304;DHT22;59091;47.446;19.148;2023-03-14T05:53:43;10.16;50.26
71304;DHT22;59091;47.446;19.148;2023-03-14T05:56:08;10.29;49.82
71304;DHT22;59091;47.446;19.148;2023-03-14T05:58:34;10.53;48.97
71304;DHT22;59091;47.446;19.148;2023-03-14T06:01:03;10.53;48.78
71304;DHT22;59091;47.446;19.148;2023-03-14T06:03:29;10.65;48.12
71304;DHT22;59091;47.446;19.148;2023-03-14T06:05:54;10.75;48.19
71304;DHT22;59091;47.446;19.148;2023-03-14T06:08:20;10.81;48.05
71304;DHT22;59091;47.446;19.148;2023-03-14T06:10:45;10.96;47.90
71304;DHT22;59091;47.446;19.148;2023-03-14T06:13:11;11.11;47.28
71304;DHT22;59091;47.446;19.148;2023-03-14T06:15:37;11.20;48.20
71304;DHT22;59091;47.446;19.148;2023-03-14T06:18:02;11.35;46.91
71304;DHT22;59091;47.446;19.148;2023-03-14T06:20:28;11.57;47.41
71304;DHT22;59091;47.446;19.148;2023-03-14T06:22:53;11.65;46.22
71304;DHT22;59091;47.446;19.148;2023-03-14T06:25:19;11.65;46.77
71304;DHT22;59091;47.446;19.148;2023-03-14T06:27:44;11.62;45.77
71304;DHT22;59091;47.446;19.148;2023-03-14T06:30:11;11.78;45.71
71304;DHT22;59091;47.446;19.148;2023-03-14T06:32:36;11.90;45.93
71304;DHT22;59091;47.446;19.148;2023-03-14T06:35:02;11.98;45.60
71304;DHT22;59091;47.446;19.148;2023-03-14T06:37:28;12.05;45.62
71304;DHT22;59091;47.446;19.148;2023-03-14T06:39:54;12.21;45.38
71304;DHT22;59091;47.446;19.148;2023-03-14T06:42:20;12.10;44.99
71304;DHT22;59091;47.446;19.148;2023-03-14T06:44:46;12.27;45.18
71304;DHT22;59091;47.446;19.148;2023-03-14T06:47:13;12.41;44.80
71304;DHT22;59091;47.446;19.148;2023-03-14T06:49:42;12.32;45.18
71304;DHT22;59091;47.446;19.148;2023-03-14T06:52:08;12.46;44.75
71304;DHT22;59091;47.446;19.148;2023-03-14T06:54:33;12.32;45.29
71304;DHT22;59091;47.446;19.148;2023-03-14T06:56:59;12.50;44.64
71304;DHT22;59091;47.446;19.148;2023-03-14T06:59:24;12.62;44.71
71304;DHT22;59091;47.446;19.148;2023-03-14T07:01:50;12.70;45.01
71304;DHT22;59091;47.446;19.148;2023-03-14T07:04:16;12.79;44.62
71304;DHT22;59091;47.446;19.148;2023-03-14T07:06:42;12.95;44.88
71304;DHT22;59091;47.446;19.148;2023-03-14T07:09:10;13.02;44.50
71304;DHT22;59091;47.446;19.148;2023-03-14T07:11:36;13.11;44.75
71304;DHT22;59091;47.446;19.148;2023-03-14T07:14:02;13.14;44.60
71304;DHT22;59091;47.446;19.148;2023-03-14T07:16:27;13.40;44.18
71304;DHT22;59091;47.446;19.148;2023-03-14T07:18:56;13.37;43.57
71304;DHT22;59091;47.446;19.148;2023-03-14T07:21:22;13.40;43.51
71304;DHT22;59091;47.446;19.148;2023-03-14T07:23:47;13.51;43.27
71304;DHT22;59091;47.446;19.148;2023-03-14T07:26:13;13.55;43.71
71304;DHT22;59091;47.446;19.148;2023-03-14T07:28:38;13.40;44.09
71304;DHT22;59091;47.446;19.148;2023-03-14T07:31:04;13.50;44.19
71304;DHT22;59091;47.446;19.148;2023-03-14T07:33:29;13.77;43.63
71304;DHT22;59091;47.446;19.148;2023-03-14T07:35:55;13.70;44.49
71304;DHT22;59091;47.446;19.148;2023-03-14T07:38:20;13.94;43.95
71304;DHT22;59091;47.446;19.148;2023-03-14T07:40:45;14.08;43.79
71304;DHT22;59091;47.446;19.148;2023-03-14T07:43:11;14.28;43.91
71304;DHT22;59091;47.446;19.148;2023-03-14T07:45:36;14.29;44.35
71304;DHT22;59091;47.446;19.148;2023-03-14T07:48:02;14.36;43.70
71304;DHT22;59091;47.446;19.148;2023-03-14T07:50:28;14.46;42.88
71304;DHT22;59091;47.446;19.148;2023-03-14T07:52:55;14.52;43.54
71304;DHT22;59091;47.446;19.148;2023-03-14T07:55:20;14.69;43.14
71304;DHT22;59091;47.446;19.148;2023-03-14T07:57:46;14.66;43.35
71304;DHT22;59091;47.446;19.148;2023-03-14T08:00:12;14.74;43.41
71304;DHT22;59091;47.446;19.148;2023-03-14T08:02:39;14.94;42.76
71304;DHT22;59091;47.446;19.148;2023-03-14T08:05:05;15.00;42.29
71304;DHT22;59091;47.446;19.148;2023-03-14T08:07:31;15.15;42.05
71304;DHT22;59091;47.446;19.148;2023-03-14T08:09:56;15.17;42.61
71304;DHT22;59091;47.446;19.148;2023-03-14T08:12:22;15.28;42.04
71304;DHT22;59091;47.446;19.148;2023-03-14T08:14:47;15.51;42.58
71304;DHT22;59091;47.446;19.148;2023-03-14T08:17:12;15.56;41.59
71304;DHT22;59091;47.446;19.148;2023-03-14T08:19:38;15.72;41.76
71304;DHT22;59091;47.446;19.148;2023-03-14T08:22:04;15.76;40.93
71304;DHT22;59091;47.446;19.148;2023-03-14T08:24:30;15.86;40.81
71304;DHT22;59091;47.446;19.148;2023-03-14T08:26:55;16.10;40.87
71304;DHT22;59091;47.446;19.148;2023-03-14T08:29:21;16.12;41.60
71304;DHT22;59091;47.446;19.148;2023-03-14T08:31:46;16.06;41.30
71304;DHT22;59091;47.446;19.148;2023-03-14T08:34:14;16.24;40.50
71304;DHT22;59091;47.446;19.148;2023-03-14T08:36:39;16.33;39.57
71304;DHT22;59091;47.446;19.148;2023-03-14T08:39:05;16.37;39.44
71304;DHT22;59091;47.446;19.148;2023-03-14T08:41:32;16.55;39.44
71304;DHT22;59091;47.446;19.148;2023-03-14T08:43:58;16.58;40.52
71304;DHT22;59091;47.446;19.148;2023-03-14T08:46:23;16.68;39.78
71304;DHT22;59091;47.446;19.148;2023-03-14T08:48:49;16.60;39.81
71304;DHT22;59091;47.446;19.148;2023-03-14T08:51:14;16.69;39.26
71304;DHT22;59091;47.446;19.148;2023-03-14T08:53:40;16.53;39.76
71304;DHT22;59091;47.446;19.148;2023-03-14T08:56:06;16.51;40.18
71304;DHT22;59091;47.446;19.148;2023-03-14T08:58:35;16.61;40.00
71304;DHT22;59091;47.446;19.148;2023-03-14T09:01:05;16.61;39.86
71304;DHT22;59091;47.446;19.148;2023-03-14T09:03:31;16.79;39.76
71304;DHT22;59091;47.446;19.148;2023-03-14T09:06:02;16.72;39.96
71304;DHT22;59091;47.446;19.148;2023-03-14T09:08:28;16.81;39.99
71304;DHT22;59091;47.446;19.148;2023-03-14T09:10:53;16.76;39.70
71304;DHT22;59091;47.446;19.148;2023-03-14T09:13:19;16.78;39.51
71304;DHT22;59091;47.446;19.148;2023-03-14T09:15:44;16.64;40.15
71304;DHT22;59091;47.446;19.148;2023-03-14T09:18:10;16.74;40.18
71304;DHT22;59091;47.446;19.148;2023-03-14T09:20:35;16.81;39.74
71304;DHT22;59091;47.446;19.148;2023-03-14T09:23:01;16.91;39.54
71304;DHT22;59091;47.446;19.148;2023-03-14T09:25:26;16.74;39.47
71304;DHT22;59091;47.446;19.148;2023-03-14T09:27:52;16.71;40.38
71304;DHT22;59091;47.446;19.148;2023-03-14T09:30:17;16.64;39.93
71304;DHT22;59091;47.446;19.148;2023-03-14T09:32:43;16.88;40.17
71304;DHT22;59091;47.446;19.148;2023-03-14T09:35:09;16.81;40.22
71304;DHT22;59091;47.446;19.148;2023-03-14T09:37:35;17.08;40.16
71304;DHT22;59091;47.446;19.148;2023-03-14T09:40:00;17.14;39.92
71304;DHT22;59091;47.446;19.148;2023-03-14T09:42:28;17.27;40.16
71304;DHT22;59091;47.446;19.148;2023-03-14T09:44:57;17.19;39.79
71304;DHT22;59091;47.446;19.148;2023-03-14T09:47:24;17.27;39.89
71304;DHT22;59091;47.446;19.148;2023-03-14T09:49:51;17.35;39.56
71304;DHT22;59091;47.446;19.148;2023-03-14T09:52:36;17.49;38.95
71304;DHT22;59091;47.446;19.148;2023-03-14T09:55:30;17.76;40.21
71304;DHT22;59091;47.446;19.148;2023-03-14T09:58:00;17.81;38.89
71304;DHT22;59091;47.446;19.148;2023-03-14T10:00:29;18.12;39.39
71304;DHT22;59091;47.446;19.148;2023-03-14T10:02:56;18.27;38.69
71304;DHT22;59091;47.446;19.148;2023-03-14T10:05:24;18.36;38.99
71304;DHT22;59091;47.446;19.148;2023-03-14T10:07:50;18.45;37.96
71304;DHT22;59091;47.446;19.148;2023-03-14T10:10:22;18.82;40.42
71304;DHT22;59091;47.446;19.148;2023-03-14T10:12:55;19.00;44.97
71304;DHT22;59091;47.446;19.148;2023-03-14T10:15:31;19.09;40.24
71304;DHT22;59091;47.446;19.148;2023-03-14T10:17:59;19.18;41.11
71304;DHT22;59091;47.446;19.148;2023-03-14T10:20:35;19.24;37.12
71304;DHT22;59091;47.446;19.148;2023-03-14T10:25:48;19.13;37.54
71304;DHT22;59091;47.446;19.148;2023-03-14T10:28:26;19.32;37.90
71304;DHT22;59091;47.446;19.148;2023-03-14T10:30:53;19.34;38.17
71304;DHT22;59091;47.446;19.148;2023-03-14T10:33:20;19.43;38.78
71304;DHT22;59091;47.446;19.148;2023-03-14T10:35:54;19.54;37.30
71304;DHT22;59091;47.446;19.148;2023-03-14T10:38:23;19.77;36.83
71304;DHT22;59091;47.446;19.148;2023-03-14T10:40:51;19.93;36.74
71304;DHT22;59091;47.446;19.148;2023-03-14T10:43:26;19.86;37.39
71304;DHT22;59091;47.446;19.148;2023-03-14T10:45:58;19.98;37.95
71304;DHT22;59091;47.446;19.148;2023-03-14T10:48:36;20.15;37.22
71304;DHT22;59091;47.446;19.148;2023-03-14T10:53:50;20.15;35.26
71304;DHT22;59091;47.446;19.148;2023-03-14T10:56:22;20.15;36.51
71304;DHT22;59091;47.446;19.148;2023-03-14T10:58:50;19.89;36.27
71304;DHT22;59091;47.446;19.148;2023-03-14T11:03:53;19.82;37.47
71304;DHT22;59091;47.446;19.148;2023-03-14T11:06:28;19.96;36.82
71304;DHT22;59091;47.446;19.148;2023-03-14T11:08:57;19.82;37.17
71304;DHT22;59091;47.446;19.148;2023-03-14T11:11:29;19.96;37.11
71304;DHT22;59091;47.446;19.148;2023-03-14T11:17:02;20.05;35.27
71304;DHT22;59091;47.446;19.148;2023-03-14T11:27:44;20.67;33.38
71304;DHT22;59091;47.446;19.148;2023-03-14T11:40:48;20.66;33.75
71304;DHT22;59091;47.446;19.148;2023-03-14T11:43:35;20.71;33.25
71304;DHT22;59091;47.446;19.148;2023-03-14T11:46:16;20.85;33.84
71304;DHT22;59091;47.446;19.148;2023-03-14T11:51:39;20.85;33.46
71304;DHT22;59091;47.446;19.148;2023-03-14T11:56:53;20.87;34.21
71304;DHT22;59091;47.446;19.148;2023-03-14T11:59:24;20.94;33.19
71304;DHT22;59091;47.446;19.148;2023-03-14T12:02:00;21.07;32.90
71304;DHT22;59091;47.446;19.148;2023-03-14T12:07:02;21.27;32.47
71304;DHT22;59091;47.446;19.148;2023-03-14T12:09:29;21.31;32.36
71304;DHT22;59091;47.446;19.148;2023-03-14T12:11:56;21.52;33.22
71304;DHT22;59091;47.446;19.148;2023-03-14T12:16:56;21.62;32.93
71304;DHT22;59091;47.446;19.148;2023-03-14T12:22:00;21.55;32.58
71304;DHT22;59091;47.446;19.148;2023-03-14T12:24:30;21.59;33.02
71304;DHT22;59091;47.446;19.148;2023-03-14T12:27:00;21.78;32.32
71304;DHT22;59091;47.446;19.148;2023-03-14T12:29:26;21.63;32.11
71304;DHT22;59091;47.446;19.148;2023-03-14T12:34:34;21.67;32.31
71304;DHT22;59091;47.446;19.148;2023-03-14T12:45:23;21.80;31.29
71304;DHT22;59091;47.446;19.148;2023-03-14T12:47:54;21.67;31.09
71304;DHT22;59091;47.446;19.148;2023-03-14T12:50:41;21.70;31.26
71304;DHT22;59091;47.446;19.148;2023-03-14T12:56:11;21.45;31.49
71304;DHT22;59091;47.446;19.148;2023-03-14T13:01:26;21.53;32.15
71304;DHT22;59091;47.446;19.148;2023-03-14T13:03:57;21.48;31.82
71304;DHT22;59091;47.446;19.148;2023-03-14T13:06:50;21.28;32.11
71304;DHT22;59091;47.446;19.148;2023-03-14T13:11:52;21.25;33.14
71304;DHT22;59091;47.446;19.148;2023-03-14T13:14:18;21.01;33.55
71304;DHT22;59091;47.446;19.148;2023-03-14T13:16:44;20.87;32.02
71304;DHT22;59091;47.446;19.148;2023-03-14T13:19:17;20.70;32.95
71304;DHT22;59091;47.446;19.148;2023-03-14T13:21:44;20.46;32.44
71304;DHT22;59091;47.446;19.148;2023-03-14T13:24:22;20.63;32.53
71304;DHT22;59091;47.446;19.148;2023-03-14T13:26:48;20.63;32.14
71304;DHT22;59091;47.446;19.148;2023-03-14T13:31:46;20.43;32.68
71304;DHT22;59091;47.446;19.148;2023-03-14T13:34:12;20.32;32.12
71304;DHT22;59091;47.446;19.148;2023-03-14T13:36:38;20.43;32.26
71304;DHT22;59091;47.446;19.148;2023-03-14T13:39:06;20.41;32.69
71304;DHT22;59091;47.446;19.148;2023-03-14T13:41:37;20.40;33.76
71304;DHT22;59091;47.446;19.148;2023-03-14T13:44:06;20.36;32.88
71304;DHT22;59091;47.446;19.148;2023-03-14T13:46:36;20.23;33.56
71304;DHT22;59091;47.446;19.148;2023-03-14T13:49:04;20.18;33.90
71304;DHT22;59091;47.446;19.148;2023-03-14T13:51:31;20.34;34.05
71304;DHT22;59091;47.446;19.148;2023-03-14T13:54:00;20.39;34.29
71304;DHT22;59091;47.446;19.148;2023-03-14T13:56:28;20.49;34.59
71304;DHT22;59091;47.446;19.148;2023-03-14T13:58:54;20.53;34.54
71304;DHT22;59091;47.446;19.148;2023-03-14T14:01:27;20.64;34.70
71304;DHT22;59091;47.446;19.148;2023-03-14T14:03:55;20.73;34.62
71304;DHT22;59091;47.446;19.148;2023-03-14T14:06:34;20.69;35.11
71304;DHT22;59091;47.446;19.148;2023-03-14T14:09:10;20.70;35.55
71304;DHT22;59091;47.446;19.148;2023-03-14T14:14:15;20.74;35.29
71304;DHT22;59091;47.446;19.148;2023-03-14T14:16:43;20.66;35.87
71304;DHT22;59091;47.446;19.148;2023-03-14T14:19:09;20.64;34.99
71304;DHT22;59091;47.446;19.148;2023-03-14T14:21:34;20.79;34.59
71304;DHT22;59091;47.446;19.148;2023-03-14T14:24:00;20.56;34.61
71304;DHT22;59091;47.446;19.148;2023-03-14T14:26:26;20.70;34.78
71304;DHT22;59091;47.446;19.148;2023-03-14T14:29:03;20.67;35.50
71304;DHT22;59091;47.446;19.148;2023-03-14T14:31:29;20.46;36.04
71304;DHT22;59091;47.446;19.148;2023-03-14T14:34:00;20.46;35.92
71304;DHT22;59091;47.446;19.148;2023-03-14T14:36:36;20.49;37.37
71304;DHT22;59091;47.446;19.148;2023-03-14T14:39:15;20.40;35.56
71304;DHT22;59091;47.446;19.148;2023-03-14T14:41:42;20.36;35.76
71304;DHT22;59091;47.446;19.148;2023-03-14T14:44:11;20.36;36.94
71304;DHT22;59091;47.446;19.148;2023-03-14T14:46:37;20.19;35.78
71304;DHT22;59091;47.446;19.148;2023-03-14T14:49:08;20.02;36.29
71304;DHT22;59091;47.446;19.148;2023-03-14T14:51:41;20.05;36.14
71304;DHT22;59091;47.446;19.148;2023-03-14T14:54:18;20.00;35.67
71304;DHT22;59091;47.446;19.148;2023-03-14T14:56:50;20.04;35.71
71304;DHT22;59091;47.446;19.148;2023-03-14T14:59:24;20.09;37.77
71304;DHT22;59091;47.446;19.148;2023-03-14T15:01:55;19.81;35.67
71304;DHT22;59091;47.446;19.148;2023-03-14T15:04:21;19.92;36.34
71304;DHT22;59091;47.446;19.148;2023-03-14T15:06:49;19.78;37.56
71304;DHT22;59091;47.446;19.148;2023-03-14T15:09:16;19.92;41.15
71304;DHT22;59091;47.446;19.148;2023-03-14T15:11:43;19.83;36.33
71304;DHT22;59091;47.446;19.148;2023-03-14T15:14:08;19.89;36.18
71304;DHT22;59091;47.446;19.148;2023-03-14T15:16:34;19.68;36.66
71304;DHT22;59091;47.446;19.148;2023-03-14T15:19:10;19.61;37.13
71304;DHT22;59091;47.446;19.148;2023-03-14T15:21:35;19.48;41.68
71304;DHT22;59091;47.446;19.148;2023-03-14T15:24:01;19.48;38.12
71304;DHT22;59091;47.446;19.148;2023-03-14T15:26:27;19.47;37.95
71304;DHT22;59091;47.446;19.148;2023-03-14T15:28:54;19.37;37.81
71304;DHT22;59091;47.446;19.148;2023-03-14T15:31:20;19.30;37.80
71304;DHT22;59091;47.446;19.148;2023-03-14T15:33:49;19.02;38.09
71304;DHT22;59091;47.446;19.148;2023-03-14T15:38:51;19.00;38.56
71304;DHT22;59091;47.446;19.148;2023-03-14T15:41:18;18.87;38.53
71304;DHT22;59091;47.446;19.148;2023-03-14T15:43:44;18.86;38.88
71304;DHT22;59091;47.446;19.148;2023-03-14T15:46:10;18.87;42.90
71304;DHT22;59091;47.446;19.148;2023-03-14T15:48:36;18.87;39.40
71304;DHT22;59091;47.446;19.148;2023-03-14T15:51:01;18.89;40.84
71304;DHT22;59091;47.446;19.148;2023-03-14T15:53:27;18.69;39.71
71304;DHT22;59091;47.446;19.148;2023-03-14T15:55:52;18.60;40.11
71304;DHT22;59091;47.446;19.148;2023-03-14T15:58:19;18.62;39.63
71304;DHT22;59091;47.446;19.148;2023-03-14T16:00:44;18.52;44.73
71304;DHT22;59091;47.446;19.148;2023-03-14T16:03:10;18.53;39.83
71304;DHT22;59091;47.446;19.148;2023-03-14T16:05:39;18.44;39.85
71304;DHT22;59091;47.446;19.148;2023-03-14T16:08:05;18.11;40.40
71304;DHT22;59091;47.446;19.148;2023-03-14T16:10:31;17.83;45.02
71304;DHT22;59091;47.446;19.148;2023-03-14T16:12:56;17.64;47.64
71304;DHT22;59091;47.446;19.148;2023-03-14T16:15:22;17.57;48.84
71304;DHT22;59091;47.446;19.148;2023-03-14T16:17:54;17.36;52.64
71304;DHT22;59091;47.446;19.148;2023-03-14T16:20:21;17.18;55.06
71304;DHT22;59091;47.446;19.148;2023-03-14T16:22:47;16.95;56.30
71304;DHT22;59091;47.446;19.148;2023-03-14T16:25:12;16.98;56.56
71304;DHT22;59091;47.446;19.148;2023-03-14T16:27:38;16.74;57.25
71304;DHT22;59091;47.446;19.148;2023-03-14T16:30:05;16.71;57.71
71304;DHT22;59091;47.446;19.148;2023-03-14T16:32:30;16.64;57.74
71304;DHT22;59091;47.446;19.148;2023-03-14T16:34:56;16.44;58.02
71304;DHT22;59091;47.446;19.148;2023-03-14T16:37:23;16.44;58.57